sensor_id;sensor_type;location;lat;lon;timestamp;pressure;altitude;pressure_sealevel;temperature;humidity
29941;BME280;16801;53.562;10.038;2022-10-30T00:03:10;101663.75;;;14.94;95.48
29941;BME280;16801;53.562;10.038;2022-10-30T00:06:32;101658.16;;;14.96;95.74
29941;BME280;16801;53.562;10.038;2022-10-30T00:09:53;101655.31;;;14.97;95.49
29941;BME280;16801;53.562;10.038;2022-10-30T00:13:14;101657.16;;;14.97;94.95
29941;BME280;16801;53.562;10.038;2022-10-30T00:16:36;101649.63;;;14.91;95.10
29941;BME280;16801;53.562;10.038;2022-10-30T00:19:57;101645.03;;;14.91;95.34
29941;BME280;16801;53.562;10.038;2022-10-30T00:23:18;101642.88;;;14.85;95.72
29941;BME280;16801;53.562;10.038;2022-10-30T00:26:39;101645.59;;;14.85;95.80
29941;BME280;16801;53.562;10.038;2022-10-30T00:30:00;101647.63;;;14.74;96.13
29941;BME280;16801;53.562;10.038;2022-10-30T00:33:22;101648.75;;;14.71;96.32
29941;BME280;16801;53.562;10.038;2022-10-30T00:36:43;101638.31;;;14.67;96.05
29941;BME280;16801;53.562;10.038;2022-10-30T00:40:05;101641.91;;;14.67;96.57
29941;BME280;16801;53.562;10.038;2022-10-30T00:43:31;101641.19;;;14.65;96.32
29941;BME280;16801;53.562;10.038;2022-10-30T00:46:53;101633.91;;;14.66;96.27
29941;BME280;16801;53.562;10.038;2022-10-30T00:50:17;101643.22;;;14.54;96.75
29941;BME280;16801;53.562;10.038;2022-10-30T00:53:41;101634.06;;;14.55;97.14
29941;BME280;16801;53.562;10.038;2022-10-30T00:57:05;101631.19;;;14.56;96.89
29941;BME280;16801;53.562;10.038;2022-10-30T01:00:28;101628.34;;;14.58;97.02
29941;BME280;16801;53.562;10.038;2022-10-30T01:03:52;101627.34;;;14.68;96.17
29941;BME280;16801;53.562;10.038;2022-10-30T01:07:16;101625.91;;;14.74;95.24
29941;BME280;16801;53.562;10.038;2022-10-30T01:10:38;101625.47;;;14.78;94.89
29941;BME280;16801;53.562;10.038;2022-10-30T01:14:02;101623.91;;;14.76;95.11
29941;BME280;16801;53.562;10.038;2022-10-30T01:17:38;101619.63;;;14.73;94.58
29941;BME280;16801;53.562;10.038;2022-10-30T01:21:14;101631.63;;;14.61;95.18
29941;BME280;16801;53.562;10.038;2022-10-30T01:24:48;101627.63;;;14.46;95.57
29941;BME280;16801;53.562;10.038;2022-10-30T01:28:27;101616.22;;;14.43;96.17
29941;BME280;16801;53.562;10.038;2022-10-30T01:32:04;101612.38;;;14.45;95.95
29941;BME280;16801;53.562;10.038;2022-10-30T01:35:33;101610.91;;;14.51;96.03
29941;BME280;16801;53.562;10.038;2022-10-30T01:39:00;101609.34;;;14.38;96.68
29941;BME280;16801;53.562;10.038;2022-10-30T01:42:43;101605.06;;;14.55;96.11
29941;BME280;16801;53.562;10.038;2022-10-30T01:46:16;101604.22;;;14.45;96.26
29941;BME280;16801;53.562;10.038;2022-10-30T01:49:57;101604.50;;;14.52;95.99
29941;BME280;16801;53.562;10.038;2022-10-30T01:53:31;101600.78;;;14.53;96.04
29941;BME280;16801;53.562;10.038;2022-10-30T01:57:02;101596.63;;;14.58;95.04
29941;BME280;16801;53.562;10.038;2022-10-30T02:00:31;101591.09;;;14.40;95.94
29941;BME280;16801;53.562;10.038;2022-10-30T02:03:52;101590.09;;;14.51;95.78
29941;BME280;16801;53.562;10.038;2022-10-30T02:07:14;101589.09;;;14.43;95.37
29941;BME280;16801;53.562;10.038;2022-10-30T02:10:41;101595.09;;;14.56;95.18
29941;BME280;16801;53.562;10.038;2022-10-30T02:14:05;101591.63;;;14.63;94.59
29941;BME280;16801;53.562;10.038;2022-10-30T02:17:29;101586.38;;;14.43;94.59
29941;BME280;16801;53.562;10.038;2022-10-30T02:20:51;101581.22;;;14.49;95.18
29941;BME280;16801;53.562;10.038;2022-10-30T02:24:13;101584.50;;;14.53;94.79
29941;BME280;16801;53.562;10.038;2022-10-30T02:27:34;101592.09;;;14.49;94.88
29941;BME280;16801;53.562;10.038;2022-10-30T02:30:55;101589.81;;;14.35;95.16
29941;BME280;16801;53.562;10.038;2022-10-30T02:34:17;101588.50;;;14.29;95.23
29941;BME280;16801;53.562;10.038;2022-10-30T02:37:39;101588.78;;;14.26;95.22
29941;BME280;16801;53.562;10.038;2022-10-30T02:41:00;101585.06;;;14.18;95.47
29941;BME280;16801;53.562;10.038;2022-10-30T02:44:22;101591.19;;;14.20;95.76
29941;BME280;16801;53.562;10.038;2022-10-30T02:47:43;101596.59;;;14.10;96.00
29941;BME280;16801;53.562;10.038;2022-10-30T02:51:04;101599.19;;;14.21;95.35
29941;BME280;16801;53.562;10.038;2022-10-30T02:54:26;101591.88;;;14.12;95.69
29941;BME280;16801;53.562;10.038;2022-10-30T02:57:47;101592.75;;;14.13;95.90
29941;BME280;16801;53.562;10.038;2022-10-30T03:01:10;101593.63;;;14.13;95.65
29941;BME280;16801;53.562;10.038;2022-10-30T03:04:31;101607.47;;;14.20;95.60
29941;BME280;16801;53.562;10.038;2022-10-30T03:07:53;101608.50;;;14.28;95.08
29941;BME280;16801;53.562;10.038;2022-10-30T03:11:18;101611.56;;;14.14;95.35
29941;BME280;16801;53.562;10.038;2022-10-30T03:14:39;101606.72;;;13.99;95.51
29941;BME280;16801;53.562;10.038;2022-10-30T03:18:00;101607.44;;;14.01;95.50
29941;BME280;16801;53.562;10.038;2022-10-30T03:21:23;101610.72;;;14.04;95.37
29941;BME280;16801;53.562;10.038;2022-10-30T03:24:44;101613.56;;;14.12;94.88
29941;BME280;16801;53.562;10.038;2022-10-30T03:28:06;101612.75;;;14.21;94.47
29941;BME280;16801;53.562;10.038;2022-10-30T03:31:29;101613.88;;;14.19;94.02
29941;BME280;16801;53.562;10.038;2022-10-30T03:35:09;101613.75;;;14.20;94.39
29941;BME280;16801;53.562;10.038;2022-10-30T03:38:30;101613.75;;;14.20;93.98
29941;BME280;16801;53.562;10.038;2022-10-30T03:41:51;101613.50;;;14.33;93.74
29941;BME280;16801;53.562;10.038;2022-10-30T03:45:13;101610.47;;;14.26;93.63
29941;BME280;16801;53.562;10.038;2022-10-30T03:48:34;101615.59;;;14.20;93.58
29941;BME280;16801;53.562;10.038;2022-10-30T03:51:55;101625.88;;;14.26;93.78
29941;BME280;16801;53.562;10.038;2022-10-30T03:55:18;101609.59;;;14.16;93.30
29941;BME280;16801;53.562;10.038;2022-10-30T03:58:39;101621.28;;;14.07;93.87
29941;BME280;16801;53.562;10.038;2022-10-30T04:02:04;101620.72;;;14.04;94.10
29941;BME280;16801;53.562;10.038;2022-10-30T04:05:26;101620.56;;;14.15;93.98
29941;BME280;16801;53.562;10.038;2022-10-30T04:08:48;101625.13;;;14.14;93.57
29941;BME280;16801;53.562;10.038;2022-10-30T04:12:09;101621.28;;;14.17;93.36
29941;BME280;16801;53.562;10.038;2022-10-30T04:15:31;101628.69;;;13.96;93.81
29941;BME280;16801;53.562;10.038;2022-10-30T04:18:53;101626.56;;;14.09;93.84
29941;BME280;16801;53.562;10.038;2022-10-30T04:22:14;101629.00;;;14.12;93.69
29941;BME280;16801;53.562;10.038;2022-10-30T04:25:35;101625.00;;;14.06;93.39
29941;BME280;16801;53.562;10.038;2022-10-30T04:28:56;101631.28;;;14.07;93.43
29941;BME280;16801;53.562;10.038;2022-10-30T04:32:17;101623.00;;;14.08;92.69
29941;BME280;16801;53.562;10.038;2022-10-30T04:35:41;101610.88;;;14.03;92.79
29941;BME280;16801;53.562;10.038;2022-10-30T04:39:05;101607.59;;;13.99;92.97
29941;BME280;16801;53.562;10.038;2022-10-30T04:42:28;101610.88;;;14.03;92.76
29941;BME280;16801;53.562;10.038;2022-10-30T04:45:48;101606.16;;;13.95;92.46
29941;BME280;16801;53.562;10.038;2022-10-30T04:49:09;101604.97;;;13.79;93.47
29941;BME280;16801;53.562;10.038;2022-10-30T04:52:31;101606.81;;;13.78;93.99
29941;BME280;16801;53.562;10.038;2022-10-30T04:55:52;101605.53;;;13.82;93.93
29941;BME280;16801;53.562;10.038;2022-10-30T04:59:14;101608.41;;;13.81;93.67
29941;BME280;16801;53.562;10.038;2022-10-30T05:02:36;101606.41;;;13.92;93.34
29941;BME280;16801;53.562;10.038;2022-10-30T05:05:59;101607.44;;;13.91;93.24
29941;BME280;16801;53.562;10.038;2022-10-30T05:09:22;101611.13;;;13.90;93.32
29941;BME280;16801;53.562;10.038;2022-10-30T05:12:44;101609.53;;;13.78;93.73
29941;BME280;16801;53.562;10.038;2022-10-30T05:16:06;101607.41;;;13.82;93.57
29941;BME280;16801;53.562;10.038;2022-10-30T05:19:27;101608.09;;;13.84;93.63
29941;BME280;16801;53.562;10.038;2022-10-30T05:22:54;101611.53;;;13.86;93.46
29941;BME280;16801;53.562;10.038;2022-10-30T05:26:16;101610.97;;;13.82;93.12
29941;BME280;16801;53.562;10.038;2022-10-30T05:29:37;101616.97;;;13.86;93.09
29941;BME280;16801;53.562;10.038;2022-10-30T05:32:58;101622.97;;;13.89;92.98
29941;BME280;16801;53.562;10.038;2022-10-30T05:36:20;101614.84;;;13.89;92.76
29941;BME280;16801;53.562;10.038;2022-10-30T05:39:41;101607.84;;;13.87;92.87
29941;BME280;16801;53.562;10.038;2022-10-30T05:43:12;101618.81;;;13.85;92.83
29941;BME280;16801;53.562;10.038;2022-10-30T05:46:33;101617.50;;;13.70;92.96
29941;BME280;16801;53.562;10.038;2022-10-30T05:50:12;101627.75;;;13.67;92.97
29941;BME280;16801;53.562;10.038;2022-10-30T05:53:47;101629.31;;;13.69;93.64
29941;BME280;16801;53.562;10.038;2022-10-30T05:57:08;101626.31;;;13.62;93.17
29941;BME280;16801;53.562;10.038;2022-10-30T06:00:34;101630.16;;;13.60;93.10
29941;BME280;16801;53.562;10.038;2022-10-30T06:03:56;101630.88;;;13.62;93.19
29941;BME280;16801;53.562;10.038;2022-10-30T06:07:17;101633.00;;;13.58;93.03
29941;BME280;16801;53.562;10.038;2022-10-30T06:10:38;101640.53;;;13.55;93.23
29941;BME280;16801;53.562;10.038;2022-10-30T06:14:11;101641.63;;;13.43;93.79
29941;BME280;16801;53.562;10.038;2022-10-30T06:17:46;101640.09;;;13.50;93.60
29941;BME280;16801;53.562;10.038;2022-10-30T06:21:30;101641.63;;;13.43;93.63
29941;BME280;16801;53.562;10.038;2022-10-30T06:25:05;101649.06;;;13.50;93.37
29941;BME280;16801;53.562;10.038;2022-10-30T06:28:43;101643.09;;;13.47;93.43
29941;BME280;16801;53.562;10.038;2022-10-30T06:32:06;101654.34;;;13.52;93.09
29941;BME280;16801;53.562;10.038;2022-10-30T06:35:29;101655.78;;;13.56;93.37
29941;BME280;16801;53.562;10.038;2022-10-30T06:38:49;101656.81;;;13.55;92.83
29941;BME280;16801;53.562;10.038;2022-10-30T06:42:12;101651.56;;;13.63;92.76
29941;BME280;16801;53.562;10.038;2022-10-30T06:45:51;101655.38;;;13.60;92.54
29941;BME280;16801;53.562;10.038;2022-10-30T06:49:12;101656.50;;;13.58;92.60
29941;BME280;16801;53.562;10.038;2022-10-30T06:52:35;101662.56;;;13.71;92.50
29941;BME280;16801;53.562;10.038;2022-10-30T06:55:57;101667.13;;;13.71;91.96
29941;BME280;16801;53.562;10.038;2022-10-30T06:59:41;101670.50;;;13.53;92.63
29941;BME280;16801;53.562;10.038;2022-10-30T07:03:31;101674.81;;;13.66;92.46
29941;BME280;16801;53.562;10.038;2022-10-30T07:06:52;101669.16;;;13.78;91.87
29941;BME280;16801;53.562;10.038;2022-10-30T07:10:15;101675.44;;;13.79;91.85
29941;BME280;16801;53.562;10.038;2022-10-30T07:14:13;101679.06;;;13.98;91.28
29941;BME280;16801;53.562;10.038;2022-10-30T07:17:51;101674.34;;;13.91;91.13
29941;BME280;16801;53.562;10.038;2022-10-30T07:21:15;101677.56;;;13.75;91.67
29941;BME280;16801;53.562;10.038;2022-10-30T07:24:36;101674.91;;;13.94;91.42
29941;BME280;16801;53.562;10.038;2022-10-30T07:28:19;101678.94;;;14.09;90.50
29941;BME280;16801;53.562;10.038;2022-10-30T07:31:57;101691.72;;;13.88;91.35
29941;BME280;16801;53.562;10.038;2022-10-30T07:35:23;101687.94;;;14.10;90.86
29941;BME280;16801;53.562;10.038;2022-10-30T07:38:51;101692.59;;;14.28;89.53
29941;BME280;16801;53.562;10.038;2022-10-30T07:42:20;101691.94;;;14.06;90.19
29941;BME280;16801;53.562;10.038;2022-10-30T07:46:21;101699.31;;;14.34;89.51
29941;BME280;16801;53.562;10.038;2022-10-30T07:50:12;101704.19;;;14.50;88.00
29941;BME280;16801;53.562;10.038;2022-10-30T07:53:33;101691.75;;;14.76;87.67
29941;BME280;16801;53.562;10.038;2022-10-30T07:56:54;101699.78;;;14.87;87.17
29941;BME280;16801;53.562;10.038;2022-10-30T08:00:28;101702.84;;;15.30;85.62
29941;BME280;16801;53.562;10.038;2022-10-30T08:04:00;101706.31;;;15.23;85.25
29941;BME280;16801;53.562;10.038;2022-10-30T08:07:22;101704.00;;;15.37;84.62
29941;BME280;16801;53.562;10.038;2022-10-30T08:10:43;101707.84;;;15.44;85.03
29941;BME280;16801;53.562;10.038;2022-10-30T08:14:04;101710.97;;;15.95;83.11
29941;BME280;16801;53.562;10.038;2022-10-30T08:17:25;101708.53;;;16.20;81.96
29941;BME280;16801;53.562;10.038;2022-10-30T08:20:48;101704.59;;;16.05;82.41
29941;BME280;16801;53.562;10.038;2022-10-30T08:24:10;101707.19;;;16.06;82.15
29941;BME280;16801;53.562;10.038;2022-10-30T08:27:34;101700.97;;;16.41;81.29
29941;BME280;16801;53.562;10.038;2022-10-30T08:30:56;101707.50;;;16.48;81.08
29941;BME280;16801;53.562;10.038;2022-10-30T08:34:34;101706.91;;;16.54;81.14
29941;BME280;16801;53.562;10.038;2022-10-30T08:38:01;101706.69;;;16.38;81.22
29941;BME280;16801;53.562;10.038;2022-10-30T08:41:22;101713.63;;;16.77;79.93
29941;BME280;16801;53.562;10.038;2022-10-30T08:44:45;101713.97;;;17.17;81.33
29941;BME280;16801;53.562;10.038;2022-10-30T08:48:09;101709.69;;;17.58;78.40
29941;BME280;16801;53.562;10.038;2022-10-30T08:51:34;101717.81;;;17.76;75.98
29941;BME280;16801;53.562;10.038;2022-10-30T08:54:56;101708.25;;;18.47;73.83
29941;BME280;16801;53.562;10.038;2022-10-30T08:58:19;101707.13;;;19.06;72.11
29941;BME280;16801;53.562;10.038;2022-10-30T09:01:40;101712.38;;;19.64;68.00
29941;BME280;16801;53.562;10.038;2022-10-30T09:05:13;101719.59;;;21.04;62.52
29941;BME280;16801;53.562;10.038;2022-10-30T09:09:03;101711.78;;;21.90;59.95
29941;BME280;16801;53.562;10.038;2022-10-30T09:12:40;101721.22;;;21.87;59.04
29941;BME280;16801;53.562;10.038;2022-10-30T09:16:02;101709.78;;;23.48;55.07
29941;BME280;16801;53.562;10.038;2022-10-30T09:19:26;101709.97;;;23.74;53.90
29941;BME280;16801;53.562;10.038;2022-10-30T09:22:47;101710.22;;;23.79;53.08
29941;BME280;16801;53.562;10.038;2022-10-30T09:26:08;101712.22;;;23.64;53.14
29941;BME280;16801;53.562;10.038;2022-10-30T09:29:44;101711.75;;;24.70;50.76
29941;BME280;16801;53.562;10.038;2022-10-30T09:33:14;101710.59;;;25.37;49.25
29941;BME280;16801;53.562;10.038;2022-10-30T09:36:58;101711.88;;;25.61;48.28
29941;BME280;16801;53.562;10.038;2022-10-30T09:40:22;101705.22;;;27.28;45.27
29941;BME280;16801;53.562;10.038;2022-10-30T09:43:56;101706.53;;;25.01;48.74
29941;BME280;16801;53.562;10.038;2022-10-30T09:47:30;101705.63;;;27.56;43.45
29941;BME280;16801;53.562;10.038;2022-10-30T09:51:12;101716.97;;;26.48;46.12
29941;BME280;16801;53.562;10.038;2022-10-30T09:54:46;101718.38;;;26.19;46.05
29941;BME280;16801;53.562;10.038;2022-10-30T09:58:17;101709.91;;;25.88;46.83
29941;BME280;16801;53.562;10.038;2022-10-30T10:01:46;101710.75;;;27.28;43.57
29941;BME280;16801;53.562;10.038;2022-10-30T10:05:14;101707.38;;;26.95;44.12
29941;BME280;16801;53.562;10.038;2022-10-30T10:09:02;101709.09;;;25.74;46.46
29941;BME280;16801;53.562;10.038;2022-10-30T10:12:44;101705.00;;;27.79;43.03
29941;BME280;16801;53.562;10.038;2022-10-30T10:16:10;101696.94;;;26.97;44.87
29941;BME280;16801;53.562;10.038;2022-10-30T10:19:37;101705.28;;;27.46;42.75
29941;BME280;16801;53.562;10.038;2022-10-30T10:23:05;101702.84;;;27.31;43.87
29941;BME280;16801;53.562;10.038;2022-10-30T10:26:43;101699.59;;;26.34;45.66
29941;BME280;16801;53.562;10.038;2022-10-30T10:30:08;101687.50;;;27.29;43.52
29941;BME280;16801;53.562;10.038;2022-10-30T10:33:44;101692.31;;;30.93;37.68
29941;BME280;16801;53.562;10.038;2022-10-30T10:37:16;101683.66;;;30.38;37.45
29941;BME280;16801;53.562;10.038;2022-10-30T10:40:52;101687.19;;;27.68;42.29
29941;BME280;16801;53.562;10.038;2022-10-30T10:44:24;101679.00;;;27.30;43.80
29941;BME280;16801;53.562;10.038;2022-10-30T10:51:39;101664.88;;;30.73;36.60
29941;BME280;16801;53.562;10.038;2022-10-30T10:55:04;101674.31;;;31.01;35.94
29941;BME280;16801;53.562;10.038;2022-10-30T10:58:33;101681.25;;;31.98;34.06
29941;BME280;16801;53.562;10.038;2022-10-30T11:02:09;101678.84;;;26.56;44.47
29941;BME280;16801;53.562;10.038;2022-10-30T11:05:35;101665.84;;;31.40;35.78
29941;BME280;16801;53.562;10.038;2022-10-30T11:09:08;101670.69;;;29.05;39.43
29941;BME280;16801;53.562;10.038;2022-10-30T11:12:34;101668.47;;;30.86;36.58
29941;BME280;16801;53.562;10.038;2022-10-30T11:16:03;101667.75;;;31.40;35.27
29941;BME280;16801;53.562;10.038;2022-10-30T11:19:28;101674.91;;;31.36;36.19
29941;BME280;16801;53.562;10.038;2022-10-30T11:22:50;101676.63;;;31.20;35.00
29941;BME280;16801;53.562;10.038;2022-10-30T11:26:25;101665.44;;;32.73;33.38
29941;BME280;16801;53.562;10.038;2022-10-30T11:29:50;101671.13;;;30.81;36.08
29941;BME280;16801;53.562;10.038;2022-10-30T11:33:21;101678.44;;;31.43;35.05
29941;BME280;16801;53.562;10.038;2022-10-30T11:36:43;101677.09;;;31.01;36.55
29941;BME280;16801;53.562;10.038;2022-10-30T11:40:05;101676.38;;;30.49;37.36
29941;BME280;16801;53.562;10.038;2022-10-30T11:43:27;101677.91;;;30.05;37.48
29941;BME280;16801;53.562;10.038;2022-10-30T11:46:48;101673.47;;;31.33;35.97
29941;BME280;16801;53.562;10.038;2022-10-30T11:50:17;101673.97;;;33.47;31.55
29941;BME280;16801;53.562;10.038;2022-10-30T11:53:41;101663.44;;;33.59;31.99
29941;BME280;16801;53.562;10.038;2022-10-30T11:57:18;101671.75;;;31.99;33.39
29941;BME280;16801;53.562;10.038;2022-10-30T12:00:40;101666.78;;;31.84;34.29
29941;BME280;16801;53.562;10.038;2022-10-30T12:04:13;101664.72;;;32.56;33.43
29941;BME280;16801;53.562;10.038;2022-10-30T12:07:37;101655.81;;;32.16;34.43
29941;BME280;16801;53.562;10.038;2022-10-30T12:11:00;101650.19;;;31.06;36.00
29941;BME280;16801;53.562;10.038;2022-10-30T12:14:25;101652.47;;;28.97;40.12
29941;BME280;16801;53.562;10.038;2022-10-30T12:17:50;101656.56;;;28.17;42.08
29941;BME280;16801;53.562;10.038;2022-10-30T12:21:16;101652.97;;;27.07;44.48
29941;BME280;16801;53.562;10.038;2022-10-30T12:24:42;101670.25;;;26.27;46.96
29941;BME280;16801;53.562;10.038;2022-10-30T12:28:06;101663.69;;;26.21;47.78
29941;BME280;16801;53.562;10.038;2022-10-30T12:31:35;101663.06;;;26.19;47.98
29941;BME280;16801;53.562;10.038;2022-10-30T12:35:01;101678.25;;;24.79;51.13
29941;BME280;16801;53.562;10.038;2022-10-30T12:38:28;101670.84;;;24.99;50.81
29941;BME280;16801;53.562;10.038;2022-10-30T12:41:58;101664.03;;;24.76;51.99
29941;BME280;16801;53.562;10.038;2022-10-30T12:45:22;101664.06;;;25.08;51.44
29941;BME280;16801;53.562;10.038;2022-10-30T12:48:50;101658.41;;;24.36;53.20
29941;BME280;16801;53.562;10.038;2022-10-30T12:52:17;101655.47;;;24.51;53.36
29941;BME280;16801;53.562;10.038;2022-10-30T12:55:40;101658.53;;;24.76;52.64
29941;BME280;16801;53.562;10.038;2022-10-30T12:59:18;101666.38;;;24.79;52.85
29941;BME280;16801;53.562;10.038;2022-10-30T13:02:50;101656.22;;;25.18;51.86
29941;BME280;16801;53.562;10.038;2022-10-30T13:06:16;101650.69;;;25.18;51.29
29941;BME280;16801;53.562;10.038;2022-10-30T13:09:41;101653.66;;;25.43;50.96
29941;BME280;16801;53.562;10.038;2022-10-30T13:13:10;101652.72;;;24.64;52.66
29941;BME280;16801;53.562;10.038;2022-10-30T13:16:34;101647.38;;;24.36;53.37
29941;BME280;16801;53.562;10.038;2022-10-30T13:19:55;101649.63;;;23.79;54.74
29941;BME280;16801;53.562;10.038;2022-10-30T13:23:19;101649.50;;;23.94;54.87
29941;BME280;16801;53.562;10.038;2022-10-30T13:26:46;101650.34;;;23.60;56.10
29941;BME280;16801;53.562;10.038;2022-10-30T13:30:13;101652.34;;;23.45;56.62
29941;BME280;16801;53.562;10.038;2022-10-30T13:33:39;101657.38;;;23.62;55.92
29941;BME280;16801;53.562;10.038;2022-10-30T13:37:05;101656.97;;;23.38;56.83
29941;BME280;16801;53.562;10.038;2022-10-30T13:40:31;101657.38;;;23.14;57.46
29941;BME280;16801;53.562;10.038;2022-10-30T13:44:02;101654.03;;;23.18;57.99
29941;BME280;16801;53.562;10.038;2022-10-30T13:47:32;101653.22;;;23.24;58.03
29941;BME280;16801;53.562;10.038;2022-10-30T13:51:16;101646.34;;;23.07;57.96
29941;BME280;16801;53.562;10.038;2022-10-30T13:54:42;101643.50;;;23.22;58.39
29941;BME280;16801;53.562;10.038;2022-10-30T13:58:09;101649.03;;;23.00;58.29
29941;BME280;16801;53.562;10.038;2022-10-30T14:01:34;101643.31;;;23.02;58.61
29941;BME280;16801;53.562;10.038;2022-10-30T14:05:04;101636.00;;;23.16;58.89
29941;BME280;16801;53.562;10.038;2022-10-30T14:08:38;101641.31;;;23.72;57.21
29941;BME280;16801;53.562;10.038;2022-10-30T14:16:00;101628.38;;;25.59;51.63
29941;BME280;16801;53.562;10.038;2022-10-30T14:19:21;101638.56;;;25.39;51.59
29941;BME280;16801;53.562;10.038;2022-10-30T14:22:42;101637.06;;;25.76;50.70
29941;BME280;16801;53.562;10.038;2022-10-30T14:26:19;101639.34;;;24.54;53.52
29941;BME280;16801;53.562;10.038;2022-10-30T14:29:46;101644.72;;;24.09;55.39
29941;BME280;16801;53.562;10.038;2022-10-30T14:33:37;101642.47;;;23.50;56.97
29941;BME280;16801;53.562;10.038;2022-10-30T14:37:01;101643.78;;;22.84;59.88
29941;BME280;16801;53.562;10.038;2022-10-30T14:40:37;101662.59;;;22.60;61.07
29941;BME280;16801;53.562;10.038;2022-10-30T14:44:24;101650.53;;;22.25;62.53
29941;BME280;16801;53.562;10.038;2022-10-30T14:47:54;101651.13;;;22.06;62.71
29941;BME280;16801;53.562;10.038;2022-10-30T14:51:19;101645.56;;;21.99;63.40
29941;BME280;16801;53.562;10.038;2022-10-30T14:54:48;101646.09;;;21.80;64.09
29941;BME280;16801;53.562;10.038;2022-10-30T14:58:17;101639.97;;;21.64;65.72
29941;BME280;16801;53.562;10.038;2022-10-30T15:01:44;101637.41;;;21.47;65.70
29941;BME280;16801;53.562;10.038;2022-10-30T15:05:28;101638.38;;;21.40;66.33
29941;BME280;16801;53.562;10.038;2022-10-30T15:09:09;101628.78;;;21.21;66.25
29941;BME280;16801;53.562;10.038;2022-10-30T15:12:45;101629.03;;;21.12;66.98
29941;BME280;16801;53.562;10.038;2022-10-30T15:16:13;101626.03;;;21.07;67.51
29941;BME280;16801;53.562;10.038;2022-10-30T15:19:36;101626.78;;;20.93;68.01
29941;BME280;16801;53.562;10.038;2022-10-30T15:22:58;101627.59;;;20.79;68.23
29941;BME280;16801;53.562;10.038;2022-10-30T15:26:22;101633.22;;;20.62;69.91
29941;BME280;16801;53.562;10.038;2022-10-30T15:29:49;101630.03;;;20.51;69.72
29941;BME280;16801;53.562;10.038;2022-10-30T15:33:18;101632.34;;;20.39;69.99
29941;BME280;16801;53.562;10.038;2022-10-30T15:36:42;101630.88;;;20.29;70.76
29941;BME280;16801;53.562;10.038;2022-10-30T15:40:15;101624.41;;;20.14;70.60
29941;BME280;16801;53.562;10.038;2022-10-30T15:43:40;101634.28;;;20.00;71.19
29941;BME280;16801;53.562;10.038;2022-10-30T15:47:03;101627.06;;;19.99;71.34
29941;BME280;16801;53.562;10.038;2022-10-30T15:50:31;101637.19;;;19.90;72.11
29941;BME280;16801;53.562;10.038;2022-10-30T15:53:55;101633.38;;;19.69;72.86
29941;BME280;16801;53.562;10.038;2022-10-30T15:57:23;101624.66;;;19.65;72.92
29941;BME280;16801;53.562;10.038;2022-10-30T16:00:54;101630.34;;;19.56;73.02
29941;BME280;16801;53.562;10.038;2022-10-30T16:04:17;101629.84;;;19.52;72.99
29941;BME280;16801;53.562;10.038;2022-10-30T16:07:44;101634.19;;;19.06;74.92
29941;BME280;16801;53.562;10.038;2022-10-30T16:11:07;101643.75;;;19.10;75.24
29941;BME280;16801;53.562;10.038;2022-10-30T16:14:29;101644.78;;;18.93;75.77
29941;BME280;16801;53.562;10.038;2022-10-30T16:18:01;101649.75;;;18.90;76.25
29941;BME280;16801;53.562;10.038;2022-10-30T16:21:24;101643.41;;;18.89;76.31
29941;BME280;16801;53.562;10.038;2022-10-30T16:24:48;101647.00;;;18.98;75.83
29941;BME280;16801;53.562;10.038;2022-10-30T16:28:24;101645.09;;;18.98;75.59
29941;BME280;16801;53.562;10.038;2022-10-30T16:31:46;101643.41;;;18.97;75.41
29941;BME280;16801;53.562;10.038;2022-10-30T16:35:09;101639.31;;;18.85;75.48
29941;BME280;16801;53.562;10.038;2022-10-30T16:38:33;101646.28;;;18.88;75.75
29941;BME280;16801;53.562;10.038;2022-10-30T16:41:56;101641.69;;;18.80;75.65
29941;BME280;16801;53.562;10.038;2022-10-30T16:45:46;101638.78;;;18.74;76.19
29941;BME280;16801;53.562;10.038;2022-10-30T16:49:13;101647.16;;;18.72;75.85
29941;BME280;16801;53.562;10.038;2022-10-30T16:52:35;101641.53;;;18.66;76.31
29941;BME280;16801;53.562;10.038;2022-10-30T16:55:57;101644.25;;;18.58;76.80
29941;BME280;16801;53.562;10.038;2022-10-30T16:59:24;101655.50;;;18.55;76.69
29941;BME280;16801;53.562;10.038;2022-10-30T17:02:49;101656.53;;;18.54;76.59
29941;BME280;16801;53.562;10.038;2022-10-30T17:06:25;101659.25;;;18.46;76.79
29941;BME280;16801;53.562;10.038;2022-10-30T17:09:47;101660.41;;;18.43;76.46
29941;BME280;16801;53.562;10.038;2022-10-30T17:13:29;101660.22;;;18.28;77.16
29941;BME280;16801;53.562;10.038;2022-10-30T17:16:52;101662.25;;;18.26;77.22
29941;BME280;16801;53.562;10.038;2022-10-30T17:20:25;101661.06;;;18.21;77.20
29941;BME280;16801;53.562;10.038;2022-10-30T17:23:47;101661.88;;;18.13;77.61
29941;BME280;16801;53.562;10.038;2022-10-30T17:27:26;101667.28;;;18.05;77.82
29941;BME280;16801;53.562;10.038;2022-10-30T17:30:48;101673.63;;;18.06;77.53
29941;BME280;16801;53.562;10.038;2022-10-30T17:34:14;101669.78;;;17.83;78.89
29941;BME280;16801;53.562;10.038;2022-10-30T17:37:37;101674.19;;;17.84;78.79
29941;BME280;16801;53.562;10.038;2022-10-30T17:40:58;101672.84;;;17.88;78.42
29941;BME280;16801;53.562;10.038;2022-10-30T17:44:21;101672.81;;;17.80;78.77
29941;BME280;16801;53.562;10.038;2022-10-30T17:47:42;101671.63;;;17.82;78.60
29941;BME280;16801;53.562;10.038;2022-10-30T17:51:04;101676.56;;;17.79;78.39
29941;BME280;16801;53.562;10.038;2022-10-30T17:54:26;101686.06;;;17.67;78.81
29941;BME280;16801;53.562;10.038;2022-10-30T17:57:47;101689.94;;;17.38;80.58